Time;durP1;ratioP1;P1;durP2;ratioP2;P2;SDS_P1;SDS_P2;PMS_P1;PMS_P2;Temp;Humidity;BMP_temperature;BMP_pressure;BME280_temperature;BME280_humidity;BME280_pressure;Samples;Min_cycle;Max_cycle;Signal;HPM_P1;HPM_P2
2022/09/24 00:01:32;;;;;;;11.40;8.90;;;;;;;;;;4976503;28;20047;-69
2022/09/24 00:04:00;;;;;;;11.15;9.35;;;;;;;;;;4976613;28;20226;-70
2022/09/24 00:06:28;;;;;;;10.68;8.43;;;;;;;;;;4976343;28;20051;-69
2022/09/24 00:08:56;;;;;;;10.27;8.50;;;;;;;;;;4975721;28;20082;-69
2022/09/24 00:11:25;;;;;;;13.88;9.30;;;;;;;;;;4976112;28;20051;-70
2022/09/24 00:13:52;;;;;;;13.07;9.02;;;;;;;;;;4976356;28;20090;-70
2022/09/24 00:16:20;;;;;;;11.52;8.90;;;;;;;;;;4976028;28;20093;-69
2022/09/24 00:18:47;;;;;;;11.75;8.32;;;;;;;;;;4975999;28;20085;-69
2022/09/24 00:21:14;;;;;;;12.85;9.98;;;;;;;;;;4975995;28;20570;-69
2022/09/24 00:23:41;;;;;;;12.38;10.05;;;;;;;;;;4976133;28;20086;-69
2022/09/24 00:28:58;;;;;;;9.38;8.38;;;;;;;;;;4975684;28;20094;-69
2022/09/24 00:31:26;;;;;;;11.27;9.05;;;;;;;;;;4975589;28;20086;-69
2022/09/24 00:33:53;;;;;;;11.13;8.88;;;;;;;;;;4957851;28;20054;-69
2022/09/24 00:36:20;;;;;;;10.52;8.40;;;;;;;;;;4975717;28;20089;-68
2022/09/24 00:38:49;;;;;;;10.05;8.88;;;;;;;;;;4975394;28;20070;-69
2022/09/24 00:41:19;;;;;;;11.88;9.18;;;;;;;;;;4975655;28;20414;-69
2022/09/24 00:43:47;;;;;;;10.77;8.68;;;;;;;;;;4975657;28;20087;-68
2022/09/24 00:46:19;;;;;;;10.35;7.82;;;;;;;;;;4975565;28;20469;-69
2022/09/24 00:48:47;;;;;;;10.40;7.72;;;;;;;;;;4975089;28;20459;-69
2022/09/24 00:51:16;;;;;;;10.63;7.80;;;;;;;;;;4932094;28;21507;-69
2022/09/24 00:53:43;;;;;;;10.32;8.18;;;;;;;;;;4958338;28;20097;-69
2022/09/24 00:56:10;;;;;;;9.85;7.63;;;;;;;;;;4975565;28;20078;-69
2022/09/24 00:58:37;;;;;;;12.40;7.63;;;;;;;;;;4973838;28;20086;-69
2022/09/24 01:01:05;;;;;;;8.80;7.88;;;;;;;;;;4957951;28;20526;-69
2022/09/24 01:03:32;;;;;;;9.65;7.88;;;;;;;;;;4975460;28;20069;-69
2022/09/24 01:05:59;;;;;;;9.55;7.22;;;;;;;;;;4958055;28;20105;-70
2022/09/24 01:08:25;;;;;;;11.10;8.23;;;;;;;;;;4943612;29;20090;-69
2022/09/24 01:11:13;;;;;;;8.98;8.15;;;;;;;;;;4955596;29;20408;-69
2022/09/24 01:14:22;;;;;;;10.90;8.23;;;;;;;;;;4955654;29;20102;-68
2022/09/24 01:16:57;;;;;;;8.80;7.90;;;;;;;;;;4948223;28;20119;-69
2022/09/24 01:19:50;;;;;;;8.68;7.88;;;;;;;;;;4955285;29;20079;-69
2022/09/24 01:22:25;;;;;;;9.43;8.30;;;;;;;;;;4938948;29;20464;-69
2022/09/24 01:25:20;;;;;;;10.02;8.98;;;;;;;;;;4964317;29;20094;-69
2022/09/24 01:28:05;;;;;;;11.55;8.63;;;;;;;;;;4946234;29;20130;-69
2022/09/24 01:30:32;;;;;;;10.05;8.40;;;;;;;;;;4960258;28;20074;-69
2022/09/24 01:33:03;;;;;;;9.20;8.30;;;;;;;;;;4957733;28;20093;-69
2022/09/24 01:35:35;;;;;;;11.02;8.07;;;;;;;;;;4957888;28;20082;-69
2022/09/24 01:38:37;;;;;;;9.15;7.90;;;;;;;;;;4973470;28;20145;-69
2022/09/24 01:41:04;;;;;;;9.60;8.35;;;;;;;;;;4974803;28;20050;-69
2022/09/24 01:43:31;;;;;;;11.68;8.20;;;;;;;;;;4957394;28;20493;-70
2022/09/24 01:46:00;;;;;;;8.98;8.10;;;;;;;;;;4957357;28;20271;-69
2022/09/24 01:48:27;;;;;;;10.20;8.45;;;;;;;;;;4956577;28;20101;-69
2022/09/24 01:50:59;;;;;;;9.80;7.97;;;;;;;;;;4974156;28;20055;-69
2022/09/24 01:53:28;;;;;;;8.82;7.90;;;;;;;;;;4957428;28;20054;-69
2022/09/24 01:56:00;;;;;;;8.70;7.63;;;;;;;;;;4941397;28;20097;-69
2022/09/24 01:58:29;;;;;;;10.63;8.20;;;;;;;;;;4941780;28;20097;-69
2022/09/24 02:01:00;;;;;;;12.70;8.20;;;;;;;;;;4940519;28;20093;-69
2022/09/24 02:03:29;;;;;;;10.48;7.82;;;;;;;;;;4957346;28;20082;-69
2022/09/24 02:06:00;;;;;;;9.13;8.23;;;;;;;;;;4941557;28;20059;-69
2022/09/24 02:08:36;;;;;;;9.77;8.52;;;;;;;;;;4941303;28;20050;-69
2022/09/24 02:11:17;;;;;;;9.73;8.20;;;;;;;;;;4957029;28;20518;-69
2022/09/24 02:14:11;;;;;;;8.80;7.82;;;;;;;;;;4946915;29;20082;-68
2022/09/24 02:16:46;;;;;;;12.98;9.45;;;;;;;;;;4954325;29;20051;-68
2022/09/24 02:19:14;;;;;;;14.70;9.38;;;;;;;;;;4938361;29;20113;-69
2022/09/24 02:21:41;;;;;;;9.50;8.60;;;;;;;;;;4955009;29;20451;-69
2022/09/24 02:24:13;;;;;;;10.02;9.02;;;;;;;;;;4954621;29;20051;-69
2022/09/24 02:26:39;;;;;;;11.82;9.50;;;;;;;;;;4924492;28;20055;-69
2022/09/24 02:29:06;;;;;;;11.45;8.63;;;;;;;;;;4973631;28;20050;-69
2022/09/24 02:31:35;;;;;;;10.50;8.85;;;;;;;;;;4973554;28;20078;-69
2022/09/24 02:34:21;;;;;;;10.32;9.27;;;;;;;;;;4941030;28;20054;-69
2022/09/24 02:36:49;;;;;;;12.35;9.05;;;;;;;;;;4944691;28;20055;-69
2022/09/24 02:39:18;;;;;;;11.65;9.43;;;;;;;;;;4956046;28;20058;-69
2022/09/24 02:41:46;;;;;;;9.40;8.50;;;;;;;;;;4959949;28;20467;-69
2022/09/24 02:44:14;;;;;;;10.27;9.20;;;;;;;;;;4921394;29;20062;-69
2022/09/24 02:46:42;;;;;;;13.90;9.98;;;;;;;;;;4953793;29;20055;-69
2022/09/24 02:49:09;;;;;;;12.13;9.43;;;;;;;;;;4953749;29;20094;-69
2022/09/24 02:51:36;;;;;;;10.82;9.27;;;;;;;;;;4953975;29;20054;-69
2022/09/24 02:54:03;;;;;;;11.80;9.32;;;;;;;;;;4954513;29;20422;-69
2022/09/24 02:56:30;;;;;;;11.30;8.60;;;;;;;;;;4970309;28;20050;-69
2022/09/24 02:58:56;;;;;;;12.77;10.25;;;;;;;;;;4962276;28;20046;-69
2022/09/24 03:01:23;;;;;;;10.45;8.75;;;;;;;;;;4979778;28;20055;-69
2022/09/24 03:03:50;;;;;;;11.10;8.52;;;;;;;;;;4980012;28;20074;-69
2022/09/24 03:06:17;;;;;;;10.15;8.50;;;;;;;;;;4979532;28;20112;-68
2022/09/24 03:08:43;;;;;;;11.23;8.70;;;;;;;;;;4979733;28;20050;-69
2022/09/24 03:11:10;;;;;;;13.05;8.57;;;;;;;;;;4980024;28;20046;-69
2022/09/24 03:13:43;;;;;;;10.75;8.82;;;;;;;;;;4990196;28;20468;-69
2022/09/24 03:16:09;;;;;;;14.18;8.65;;;;;;;;;;4999058;28;20413;-69
2022/09/24 03:18:36;;;;;;;9.05;8.10;;;;;;;;;;4998818;28;20561;-69
2022/09/24 03:21:05;;;;;;;8.93;7.95;;;;;;;;;;4999576;28;20050;-69
2022/09/24 03:23:32;;;;;;;9.40;7.78;;;;;;;;;;4983826;28;20118;-69
2022/09/24 03:25:59;;;;;;;10.52;8.25;;;;;;;;;;4979695;28;20105;-69
2022/09/24 03:28:26;;;;;;;10.00;8.02;;;;;;;;;;4979673;28;20050;-69
2022/09/24 03:30:58;;;;;;;9.52;8.55;;;;;;;;;;4979241;28;20113;-69
2022/09/24 03:33:30;;;;;;;8.90;8.00;;;;;;;;;;4979787;28;20242;-69
2022/09/24 03:35:57;;;;;;;10.65;8.55;;;;;;;;;;4979327;28;20109;-69
2022/09/24 03:38:24;;;;;;;10.25;8.43;;;;;;;;;;4979327;28;20544;-69
2022/09/24 03:40:51;;;;;;;9.80;8.45;;;;;;;;;;4979503;28;20125;-69
2022/09/24 03:43:17;;;;;;;9.45;8.55;;;;;;;;;;4979393;28;20137;-69
2022/09/24 03:45:44;;;;;;;13.55;9.63;;;;;;;;;;4979326;28;20113;-69
2022/09/24 03:48:11;;;;;;;11.15;9.48;;;;;;;;;;4979312;28;20050;-69
2022/09/24 03:50:38;;;;;;;12.32;9.40;;;;;;;;;;4979073;28;20561;-69
2022/09/24 03:53:04;;;;;;;10.50;9.23;;;;;;;;;;4979494;28;20054;-69
2022/09/24 03:55:31;;;;;;;14.75;8.65;;;;;;;;;;4979438;28;20047;-69
2022/09/24 03:57:58;;;;;;;10.55;8.52;;;;;;;;;;4979059;28;20129;-69
2022/09/24 04:00:24;;;;;;;9.18;8.25;;;;;;;;;;4978939;28;20059;-69
2022/09/24 04:02:51;;;;;;;11.93;9.05;;;;;;;;;;4962089;28;20454;-69
2022/09/24 04:05:18;;;;;;;9.95;8.23;;;;;;;;;;4979153;28;20137;-69
2022/09/24 04:07:44;;;;;;;9.48;8.55;;;;;;;;;;4978972;28;20085;-69
2022/09/24 04:10:11;;;;;;;9.35;7.53;;;;;;;;;;4974939;28;20125;-69
2022/09/24 04:12:37;;;;;;;13.18;8.93;;;;;;;;;;4975956;28;20494;-68
2022/09/24 04:15:04;;;;;;;10.68;9.13;;;;;;;;;;4976410;28;20054;-69
2022/09/24 04:17:31;;;;;;;11.45;8.20;;;;;;;;;;4975920;28;20047;-69
2022/09/24 04:19:58;;;;;;;10.02;8.75;;;;;;;;;;4975528;28;20050;-69
2022/09/24 04:22:25;;;;;;;8.98;8.10;;;;;;;;;;4976071;28;20545;-69
2022/09/24 04:24:51;;;;;;;10.50;8.63;;;;;;;;;;4976111;28;20458;-69
2022/09/24 04:27:19;;;;;;;10.40;8.88;;;;;;;;;;4975546;28;20059;-69
2022/09/24 04:29:46;;;;;;;9.55;7.65;;;;;;;;;;4975831;28;20399;-69
2022/09/24 04:32:12;;;;;;;9.30;7.90;;;;;;;;;;4965502;28;20495;-69
2022/09/24 04:34:39;;;;;;;14.68;8.73;;;;;;;;;;4939733;29;20388;-69
2022/09/24 04:37:05;;;;;;;9.95;8.20;;;;;;;;;;4956150;29;20102;-69
2022/09/24 04:39:32;;;;;;;10.50;8.15;;;;;;;;;;4956394;29;20051;-69
2022/09/24 04:41:59;;;;;;;10.05;7.55;;;;;;;;;;4955999;29;20062;-69
2022/09/24 04:44:27;;;;;;;8.70;7.80;;;;;;;;;;4956747;29;20110;-69
2022/09/24 04:46:58;;;;;;;8.45;7.65;;;;;;;;;;4973940;28;20054;-69
2022/09/24 04:49:26;;;;;;;10.43;7.70;;;;;;;;;;4975711;28;20137;-69
2022/09/24 04:51:53;;;;;;;12.13;8.32;;;;;;;;;;4975444;28;20105;-68
2022/09/24 04:54:19;;;;;;;9.20;8.23;;;;;;;;;;4974191;28;20054;-69
2022/09/24 04:56:46;;;;;;;12.15;8.25;;;;;;;;;;4975222;28;20110;-68
2022/09/24 04:59:13;;;;;;;8.95;7.97;;;;;;;;;;4970159;28;20118;-69
2022/09/24 05:01:39;;;;;;;9.18;8.00;;;;;;;;;;4956107;29;20106;-69
2022/09/24 05:04:06;;;;;;;13.70;8.75;;;;;;;;;;4955935;29;20051;-69
2022/09/24 05:06:33;;;;;;;9.55;8.60;;;;;;;;;;4956031;29;20098;-69
2022/09/24 05:08:59;;;;;;;9.20;8.20;;;;;;;;;;4960300;28;20105;-69
2022/09/24 05:11:26;;;;;;;8.85;7.95;;;;;;;;;;4972639;28;20490;-69
2022/09/24 05:13:52;;;;;;;11.15;8.10;;;;;;;;;;4975420;28;20089;-69
2022/09/24 05:16:19;;;;;;;10.15;8.63;;;;;;;;;;4964718;28;20365;-69
2022/09/24 05:18:46;;;;;;;10.98;8.00;;;;;;;;;;4966343;28;20055;-69
2022/09/24 05:21:13;;;;;;;10.23;8.18;;;;;;;;;;4961637;28;20051;-69
2022/09/24 05:23:39;;;;;;;13.70;8.90;;;;;;;;;;4955552;29;20518;-69
2022/09/24 05:28:51;;;;;;;10.32;8.20;;;;;;;;;;4955461;29;20055;-69
2022/09/24 05:31:19;;;;;;;11.25;8.50;;;;;;;;;;4985457;28;20050;-69
2022/09/24 05:33:45;;;;;;;10.68;9.10;;;;;;;;;;4994272;28;20054;-69
2022/09/24 05:36:12;;;;;;;10.10;8.13;;;;;;;;;;4976888;28;20050;-69
2022/09/24 05:38:39;;;;;;;11.25;8.77;;;;;;;;;;4993923;28;20058;-69
2022/09/24 05:41:07;;;;;;;10.88;8.73;;;;;;;;;;4990119;28;20047;-69
2022/09/24 05:43:34;;;;;;;8.63;7.72;;;;;;;;;;4974656;28;20414;-69
2022/09/24 05:46:00;;;;;;;9.85;8.15;;;;;;;;;;4974503;28;20102;-69
2022/09/24 05:48:27;;;;;;;10.45;8.10;;;;;;;;;;4975771;28;20494;-69
2022/09/24 05:50:54;;;;;;;12.45;8.73;;;;;;;;;;4987871;28;20097;-69
2022/09/24 05:53:23;;;;;;;9.07;7.70;;;;;;;;;;4974660;28;20054;-69
2022/09/24 05:55:50;;;;;;;9.10;8.20;;;;;;;;;;4974629;28;20051;-69
2022/09/24 05:58:17;;;;;;;9.25;7.95;;;;;;;;;;4974075;28;20054;-69
2022/09/24 06:00:46;;;;;;;8.95;7.53;;;;;;;;;;4973937;28;20058;-69
2022/09/24 06:03:15;;;;;;;12.65;7.75;;;;;;;;;;4958866;28;20101;-69
2022/09/24 06:05:47;;;;;;;13.93;8.10;;;;;;;;;;4956105;28;20047;-69
2022/09/24 06:08:18;;;;;;;11.60;8.05;;;;;;;;;;4973674;28;20054;-68
2022/09/24 06:10:46;;;;;;;9.05;8.10;;;;;;;;;;4973654;28;20046;-69
2022/09/24 06:13:18;;;;;;;13.18;7.97;;;;;;;;;;4974020;28;20057;-69
2022/09/24 06:15:44;;;;;;;12.65;8.68;;;;;;;;;;4962592;28;20083;-69
2022/09/24 06:18:11;;;;;;;9.85;7.68;;;;;;;;;;4954283;29;20431;-68
2022/09/24 06:20:39;;;;;;;9.60;8.10;;;;;;;;;;4958182;28;20051;-69
2022/09/24 06:23:05;;;;;;;11.63;8.43;;;;;;;;;;4973727;28;20051;-69
2022/09/24 06:25:32;;;;;;;10.20;7.63;;;;;;;;;;4973746;28;20046;-69
2022/09/24 06:28:00;;;;;;;12.10;7.90;;;;;;;;;;4973487;28;20050;-68
2022/09/24 06:30:32;;;;;;;10.30;8.18;;;;;;;;;;4973823;28;20059;-68
2022/09/24 06:33:09;;;;;;;10.27;8.27;;;;;;;;;;4973388;28;20226;-69
2022/09/24 06:35:37;;;;;;;10.70;8.73;;;;;;;;;;4973809;28;20051;-67
2022/09/24 06:38:04;;;;;;;17.23;9.70;;;;;;;;;;4954689;28;20054;-70
2022/09/24 06:40:31;;;;;;;19.77;11.10;;;;;;;;;;4972161;28;20055;-69
2022/09/24 06:43:03;;;;;;;18.77;11.60;;;;;;;;;;4971800;28;20054;-69
2022/09/24 06:45:29;;;;;;;10.93;9.18;;;;;;;;;;4971833;28;20346;-69
2022/09/24 06:47:57;;;;;;;8.85;7.22;;;;;;;;;;4971545;28;20043;-68
2022/09/24 06:50:26;;;;;;;11.88;7.70;;;;;;;;;;4971446;28;20113;-67
2022/09/24 06:52:52;;;;;;;8.80;7.90;;;;;;;;;;4954907;28;20122;-67
2022/09/24 06:55:19;;;;;;;8.93;8.02;;;;;;;;;;4952334;29;20051;-67
2022/09/24 06:57:46;;;;;;;9.30;7.95;;;;;;;;;;4951920;29;20051;-67
2022/09/24 07:00:13;;;;;;;10.20;8.15;;;;;;;;;;4961700;28;20055;-67
2022/09/24 07:02:40;;;;;;;9.32;7.78;;;;;;;;;;4971634;28;20121;-67
2022/09/24 07:05:08;;;;;;;11.25;7.88;;;;;;;;;;4966933;28;20498;-66
2022/09/24 07:07:36;;;;;;;13.25;7.95;;;;;;;;;;4934827;29;20553;-67
2022/09/24 07:10:05;;;;;;;11.77;8.25;;;;;;;;;;4957364;28;20051;-67
2022/09/24 07:12:33;;;;;;;10.43;8.07;;;;;;;;;;4962221;28;20506;-67
2022/09/24 07:15:00;;;;;;;9.20;7.93;;;;;;;;;;4952257;29;20055;-67
2022/09/24 07:17:27;;;;;;;10.73;8.10;;;;;;;;;;4951491;29;20550;-68
2022/09/24 07:19:59;;;;;;;13.68;7.90;;;;;;;;;;4945868;28;20117;-68
2022/09/24 07:22:26;;;;;;;15.85;8.80;;;;;;;;;;4971110;28;20093;-67
2022/09/24 07:24:52;;;;;;;13.30;7.93;;;;;;;;;;4968679;28;21241;-67
2022/09/24 07:27:22;;;;;;;9.30;8.00;;;;;;;;;;4968663;28;20049;-67
2022/09/24 07:29:48;;;;;;;10.35;8.20;;;;;;;;;;4954199;28;20142;-68
2022/09/24 07:32:16;;;;;;;10.18;8.50;;;;;;;;;;4951913;29;20051;-68
2022/09/24 07:34:44;;;;;;;9.90;8.52;;;;;;;;;;4954488;28;20051;-68
2022/09/24 07:37:11;;;;;;;10.07;8.32;;;;;;;;;;4970982;28;20489;-67
2022/09/24 07:39:37;;;;;;;9.55;8.60;;;;;;;;;;4975523;28;20086;-66
2022/09/24 07:42:04;;;;;;;9.02;7.85;;;;;;;;;;4972353;28;20055;-67
2022/09/24 07:44:31;;;;;;;10.48;7.80;;;;;;;;;;4973673;28;20150;-69
2022/09/24 07:46:57;;;;;;;11.40;8.23;;;;;;;;;;4973290;28;20110;-66
2022/09/24 07:49:24;;;;;;;10.82;8.10;;;;;;;;;;4974234;28;20093;-68
2022/09/24 07:51:52;;;;;;;8.38;7.50;;;;;;;;;;4974698;28;20051;-67
2022/09/24 07:54:19;;;;;;;9.25;7.40;;;;;;;;;;4958699;28;20125;-68
2022/09/24 07:56:46;;;;;;;8.07;7.28;;;;;;;;;;4963928;28;20102;-68
2022/09/24 07:59:12;;;;;;;9.57;7.50;;;;;;;;;;4956353;29;20082;-68
2022/09/24 08:01:39;;;;;;;8.13;7.32;;;;;;;;;;4938275;29;20059;-67
2022/09/24 08:04:06;;;;;;;10.38;7.85;;;;;;;;;;4956501;29;20105;-68
2022/09/24 08:06:34;;;;;;;10.25;7.57;;;;;;;;;;4956888;29;20520;-68
2022/09/24 08:09:06;;;;;;;9.32;7.60;;;;;;;;;;4956755;29;20082;-68
2022/09/24 08:11:33;;;;;;;10.80;7.72;;;;;;;;;;4960417;28;20126;-68
2022/09/24 08:14:00;;;;;;;9.45;7.97;;;;;;;;;;4956709;29;20058;-68
2022/09/24 08:16:26;;;;;;;11.05;7.38;;;;;;;;;;4956548;29;20057;-68
2022/09/24 08:18:53;;;;;;;11.00;7.60;;;;;;;;;;4956426;29;20062;-68
2022/09/24 08:21:20;;;;;;;12.73;7.55;;;;;;;;;;4956753;29;20468;-67
2022/09/24 08:23:47;;;;;;;8.65;7.70;;;;;;;;;;4956627;29;20047;-67
2022/09/24 08:26:14;;;;;;;7.63;6.35;;;;;;;;;;4974695;28;20055;-68
2022/09/24 08:28:40;;;;;;;8.88;6.05;;;;;;;;;;4975595;28;20055;-67
2022/09/24 08:31:10;;;;;;;9.05;6.25;;;;;;;;;;4975851;28;20046;-68
2022/09/24 08:33:37;;;;;;;6.70;5.93;;;;;;;;;;4958603;28;20101;-68
2022/09/24 08:36:06;;;;;;;6.32;5.72;;;;;;;;;;4975827;28;20054;-68
2022/09/24 08:38:33;;;;;;;9.30;6.75;;;;;;;;;;4968559;28;20454;-68
2022/09/24 08:41:24;;;;;;;12.32;6.85;;;;;;;;;;4956476;29;20450;-68
2022/09/24 08:43:56;;;;;;;10.18;6.38;;;;;;;;;;4939878;29;20142;-68
2022/09/24 08:49:16;;;;;;;8.85;6.35;;;;;;;;;;4942007;29;20295;-68
2022/09/24 08:52:00;;;;;;;10.13;5.90;;;;;;;;;;4923627;29;20530;-68
2022/09/24 08:54:28;;;;;;;11.75;6.72;;;;;;;;;;4924191;28;20083;-68
2022/09/24 08:56:55;;;;;;;9.32;5.72;;;;;;;;;;4923286;29;20051;-68
2022/09/24 08:59:33;;;;;;;7.40;6.47;;;;;;;;;;4938985;29;20062;-68
2022/09/24 09:02:39;;;;;;;7.20;5.85;;;;;;;;;;4939423;29;20462;-68
2022/09/24 09:05:09;;;;;;;7.80;5.38;;;;;;;;;;4925878;29;20059;-68
2022/09/24 09:07:51;;;;;;;7.38;5.75;;;;;;;;;;4966207;28;20494;-67
2022/09/24 09:10:40;;;;;;;7.80;5.82;;;;;;;;;;4973874;28;20077;-67
2022/09/24 09:13:17;;;;;;;8.63;5.43;;;;;;;;;;4974224;28;20055;-67
2022/09/24 09:16:05;;;;;;;5.82;5.13;;;;;;;;;;4974026;28;20059;-67
2022/09/24 09:18:36;;;;;;;6.18;5.50;;;;;;;;;;4974840;28;20047;-68
2022/09/24 09:21:17;;;;;;;6.53;4.72;;;;;;;;;;4957790;28;20055;-67
2022/09/24 09:23:49;;;;;;;6.68;5.22;;;;;;;;;;4955536;29;20058;-67
2022/09/24 09:26:20;;;;;;;8.30;5.20;;;;;;;;;;4955723;29;20059;-67
2022/09/24 09:28:47;;;;;;;9.13;4.88;;;;;;;;;;4955346;29;20110;-67
2022/09/24 09:31:28;;;;;;;5.47;4.97;;;;;;;;;;4955583;29;20051;-67
2022/09/24 09:34:04;;;;;;;6.43;4.50;;;;;;;;;;4963261;29;20171;-67
2022/09/24 09:37:10;;;;;;;8.88;5.30;;;;;;;;;;4963708;28;20058;-67
2022/09/24 09:40:10;;;;;;;5.28;4.43;;;;;;;;;;4940600;29;20486;-67
2022/09/24 09:42:39;;;;;;;6.45;4.90;;;;;;;;;;4955499;29;20051;-67
2022/09/24 09:45:24;;;;;;;6.35;4.43;;;;;;;;;;4955220;29;20138;-68
2022/09/24 09:47:55;;;;;;;7.78;4.63;;;;;;;;;;4955193;29;20090;-67
2022/09/24 09:50:25;;;;;;;7.03;5.05;;;;;;;;;;4960739;28;20054;-67
2022/09/24 09:52:51;;;;;;;8.20;4.47;;;;;;;;;;4974429;28;20446;-67
2022/09/24 09:55:25;;;;;;;6.30;4.25;;;;;;;;;;4974342;28;20061;-67
2022/09/24 09:57:52;;;;;;;5.43;3.70;;;;;;;;;;4974056;28;20051;-67
2022/09/24 10:00:32;;;;;;;5.15;3.97;;;;;;;;;;4956958;28;20584;-67
2022/09/24 10:02:58;;;;;;;3.72;3.30;;;;;;;;;;4956884;28;20047;-67
2022/09/24 10:05:27;;;;;;;4.68;3.75;;;;;;;;;;4941195;29;20400;-67
2022/09/24 10:07:56;;;;;;;3.50;2.92;;;;;;;;;;4937299;29;20062;-67
2022/09/24 10:10:25;;;;;;;6.20;3.45;;;;;;;;;;4954727;29;20051;-67
2022/09/24 10:13:13;;;;;;;4.63;3.67;;;;;;;;;;4954720;29;20043;-67
2022/09/24 10:15:51;;;;;;;4.30;3.53;;;;;;;;;;4957419;29;20059;-67
2022/09/24 10:18:35;;;;;;;3.70;3.08;;;;;;;;;;4954633;28;20502;-67
2022/09/24 10:21:08;;;;;;;5.72;3.42;;;;;;;;;;4974214;28;20091;-67
2022/09/24 10:23:39;;;;;;;3.53;3.17;;;;;;;;;;4972654;28;20047;-68
2022/09/24 10:26:06;;;;;;;3.40;2.83;;;;;;;;;;4973021;28;20047;-67
2022/09/24 10:31:24;;;;;;;3.90;3.20;;;;;;;;;;4972997;28;20486;-67
2022/09/24 10:33:53;;;;;;;3.85;2.78;;;;;;;;;;4957561;28;20053;-69
2022/09/24 10:36:24;;;;;;;4.57;2.78;;;;;;;;;;4921572;29;20051;-69
2022/09/24 10:39:06;;;;;;;3.83;2.80;;;;;;;;;;4960640;28;20089;-66
2022/09/24 10:41:33;;;;;;;3.83;2.70;;;;;;;;;;4971672;28;20569;-65
2022/09/24 10:44:03;;;;;;;5.10;3.85;;;;;;;;;;4973208;28;20054;-65
2022/09/24 10:46:48;;;;;;;4.38;3.78;;;;;;;;;;4956992;28;20062;-65
2022/09/24 10:49:24;;;;;;;6.25;3.63;;;;;;;;;;4972746;28;20387;-65
2022/09/24 10:51:55;;;;;;;4.25;3.35;;;;;;;;;;4973006;28;20097;-65
2022/09/24 10:55:09;;;;;;;5.88;3.05;;;;;;;;;;4953769;28;20102;-66
2022/09/24 10:58:01;;;;;;;4.43;2.97;;;;;;;;;;4893361;29;20127;-65
2022/09/24 11:00:38;;;;;;;3.63;2.87;;;;;;;;;;4922221;29;20396;-66
2022/09/24 11:03:23;;;;;;;4.10;2.78;;;;;;;;;;4935291;29;20051;-65
2022/09/24 11:06:01;;;;;;;2.90;2.50;;;;;;;;;;4936856;28;20051;-65
2022/09/24 11:08:47;;;;;;;3.80;2.80;;;;;;;;;;4964175;28;20055;-65
2022/09/24 11:11:27;;;;;;;3.22;2.70;;;;;;;;;;4992023;28;20050;-66
2022/09/24 11:13:54;;;;;;;2.78;2.30;;;;;;;;;;4943708;28;20050;-66
2022/09/24 11:16:59;;;;;;;6.38;3.00;;;;;;;;;;4982540;28;20576;-65
2022/09/24 11:19:47;;;;;;;2.90;2.60;;;;;;;;;;4933768;28;20450;-66
2022/09/24 11:22:16;;;;;;;3.13;2.42;;;;;;;;;;4957174;28;20473;-66
2022/09/24 11:24:42;;;;;;;3.10;2.58;;;;;;;;;;4958284;28;20419;-66
2022/09/24 11:27:38;;;;;;;2.45;1.90;;;;;;;;;;4975204;28;20461;-66
2022/09/24 11:30:11;;;;;;;2.45;2.25;;;;;;;;;;4967391;28;20046;-65
2022/09/24 11:32:41;;;;;;;2.38;1.80;;;;;;;;;;4973705;28;20133;-65
2022/09/24 11:35:34;;;;;;;4.05;2.33;;;;;;;;;;4971199;28;20110;-65
2022/09/24 11:38:06;;;;;;;4.35;2.45;;;;;;;;;;4967822;28;20114;-66
2022/09/24 11:40:52;;;;;;;3.63;3.03;;;;;;;;;;4944443;29;20051;-65
2022/09/24 11:43:32;;;;;;;2.45;2.13;;;;;;;;;;4967309;28;20043;-65
2022/09/24 11:46:15;;;;;;;2.40;1.95;;;;;;;;;;4958445;28;20110;-66
2022/09/24 11:48:54;;;;;;;2.65;1.80;;;;;;;;;;4923522;29;20054;-66
2022/09/24 11:51:49;;;;;;;2.38;2.17;;;;;;;;;;4939077;29;20577;-65
2022/09/24 11:54:29;;;;;;;3.58;2.50;;;;;;;;;;4967405;28;20047;-66
2022/09/24 11:57:16;;;;;;;2.70;2.42;;;;;;;;;;4961328;28;20396;-65
2022/09/24 11:59:48;;;;;;;2.38;2.10;;;;;;;;;;4943203;28;20063;-65
2022/09/24 12:02:18;;;;;;;2.88;2.33;;;;;;;;;;4944099;28;20125;-66
2022/09/24 12:05:05;;;;;;;2.75;2.53;;;;;;;;;;4974281;28;20078;-65
2022/09/24 12:07:38;;;;;;;4.63;2.30;;;;;;;;;;4970003;28;20050;-66
2022/09/24 12:10:23;;;;;;;;;;;;;;;;;;4953789;28;20065;-66
2022/09/24 12:12:53;;;;;;;3.78;2.10;;;;;;;;;;4965473;28;19926;-66
2022/09/24 12:15:24;;;;;;;2.53;2.13;;;;;;;;;;4940524;28;20047;-65
2022/09/24 12:17:56;;;;;;;3.30;2.88;;;;;;;;;;4934483;28;20051;-66
2022/09/24 12:20:30;;;;;;;2.53;2.33;;;;;;;;;;4972715;28;20051;-66
2022/09/24 12:23:03;;;;;;;3.13;2.33;;;;;;;;;;4968599;28;20804;-65
2022/09/24 12:25:41;;;;;;;2.95;2.65;;;;;;;;;;4967086;28;20054;-65
2022/09/24 12:28:12;;;;;;;2.72;2.22;;;;;;;;;;4936927;28;20065;-65
2022/09/24 12:34:00;;;;;;;4.05;3.53;;;;;;;;;;4941373;28;20133;-66
2022/09/24 12:36:53;;;;;;;3.38;2.90;;;;;;;;;;4965269;28;20050;-66
2022/09/24 12:39:27;;;;;;;3.97;3.58;;;;;;;;;;4965924;28;20055;-66
2022/09/24 12:42:00;;;;;;;5.38;3.88;;;;;;;;;;4947658;28;20097;-65
2022/09/24 12:44:30;;;;;;;4.22;3.80;;;;;;;;;;4935335;28;20066;-65
2022/09/24 12:46:57;;;;;;;4.28;3.70;;;;;;;;;;4963838;28;20109;-66
2022/09/24 12:49:24;;;;;;;5.60;4.10;;;;;;;;;;4933833;28;20043;-66
2022/09/24 12:51:58;;;;;;;5.15;3.40;;;;;;;;;;4971787;28;20047;-65
2022/09/24 12:54:33;;;;;;;5.32;3.70;;;;;;;;;;4948871;28;20047;-65
2022/09/24 12:57:09;;;;;;;5.47;3.42;;;;;;;;;;4941035;28;20050;-65
2022/09/24 12:59:58;;;;;;;6.20;3.88;;;;;;;;;;4973058;28;20505;-66
2022/09/24 13:02:55;;;;;;;3.35;3.15;;;;;;;;;;4971339;28;20050;-65
2022/09/24 13:05:22;;;;;;;4.00;3.63;;;;;;;;;;4948117;28;20403;-65
2022/09/24 13:07:58;;;;;;;5.53;4.18;;;;;;;;;;4954279;29;20055;-65
2022/09/24 13:10:28;;;;;;;5.50;4.07;;;;;;;;;;4954346;29;20055;-65
2022/09/24 13:12:56;;;;;;;6.82;4.15;;;;;;;;;;4938116;29;20061;-65
2022/09/24 13:15:27;;;;;;;4.53;4.13;;;;;;;;;;4955097;29;20499;-66
2022/09/24 13:18:10;;;;;;;5.93;4.53;;;;;;;;;;4940477;28;20506;-66
2022/09/24 13:20:38;;;;;;;6.93;4.40;;;;;;;;;;4974260;28;20047;-65
2022/09/24 13:23:18;;;;;;;5.47;4.78;;;;;;;;;;4971471;28;20065;-66
2022/09/24 13:26:04;;;;;;;5.50;4.82;;;;;;;;;;4974265;28;20058;-66
2022/09/24 13:28:32;;;;;;;5.03;4.53;;;;;;;;;;4975013;28;20399;-66
2022/09/24 13:31:10;;;;;;;6.68;4.75;;;;;;;;;;4975688;28;20062;-66
2022/09/24 13:33:42;;;;;;;7.05;4.68;;;;;;;;;;4974983;28;20053;-66
2022/09/24 13:36:37;;;;;;;4.95;3.90;;;;;;;;;;4939045;28;20075;-66
2022/09/24 13:39:43;;;;;;;5.80;4.55;;;;;;;;;;4968160;28;20457;-65
2022/09/24 13:42:24;;;;;;;5.72;4.97;;;;;;;;;;4965173;28;20047;-65
2022/09/24 13:44:51;;;;;;;5.22;4.70;;;;;;;;;;4986853;28;20104;-65
2022/09/24 13:47:25;;;;;;;6.40;4.43;;;;;;;;;;4977560;28;20101;-65
2022/09/24 13:49:53;;;;;;;4.78;4.28;;;;;;;;;;4993962;28;20046;-65
2022/09/24 13:52:41;;;;;;;8.10;4.88;;;;;;;;;;4961383;28;20054;-70
2022/09/24 13:55:17;;;;;;;4.63;4.22;;;;;;;;;;4978776;28;20050;-65
2022/09/24 13:57:45;;;;;;;7.07;5.15;;;;;;;;;;4963009;28;20101;-67
2022/09/24 14:00:20;;;;;;;5.93;4.68;;;;;;;;;;4962536;28;20474;-74
2022/09/24 14:02:55;;;;;;;5.13;4.70;;;;;;;;;;4927587;28;20064;-74
2022/09/24 14:05:22;;;;;;;6.75;5.10;;;;;;;;;;4971324;28;20082;-72
2022/09/24 14:08:04;;;;;;;5.70;5.05;;;;;;;;;;4945195;28;20153;-77
2022/09/24 14:10:31;;;;;;;5.65;5.05;;;;;;;;;;4945973;28;20106;-67
2022/09/24 14:13:20;;;;;;;9.18;5.93;;;;;;;;;;4967550;28;20054;-71
2022/09/24 14:15:57;;;;;;;6.13;5.55;;;;;;;;;;4927267;28;20107;-71
2022/09/24 14:18:27;;;;;;;7.78;5.45;;;;;;;;;;4966972;28;20547;-71
2022/09/24 14:21:09;;;;;;;6.63;5.78;;;;;;;;;;4953211;28;20502;-73
2022/09/24 14:23:54;;;;;;;6.20;5.10;;;;;;;;;;4963963;28;20469;-73
2022/09/24 14:26:29;;;;;;;5.47;4.97;;;;;;;;;;4948961;28;20217;-72
2022/09/24 14:28:58;;;;;;;6.10;5.50;;;;;;;;;;4961520;28;20082;-71
2022/09/24 14:31:25;;;;;;;6.45;5.15;;;;;;;;;;4946619;28;20457;-70
2022/09/24 14:33:52;;;;;;;5.93;5.30;;;;;;;;;;4943666;28;20047;-73
2022/09/24 14:36:26;;;;;;;7.32;5.07;;;;;;;;;;4938932;28;20066;-73
2022/09/24 14:39:02;;;;;;;5.55;4.90;;;;;;;;;;4950164;28;20564;-72
2022/09/24 14:41:40;;;;;;;5.63;5.10;;;;;;;;;;4948170;28;20505;-74
2022/09/24 14:44:28;;;;;;;10.05;5.78;;;;;;;;;;4928733;28;20050;-73
2022/09/24 14:46:56;;;;;;;5.85;5.07;;;;;;;;;;4944956;28;20133;-74
2022/09/24 14:49:26;;;;;;;8.13;6.05;;;;;;;;;;4923944;28;20062;-74
2022/09/24 14:51:55;;;;;;;6.25;5.35;;;;;;;;;;4939420;28;20058;-66
2022/09/24 14:54:40;;;;;;;9.15;5.82;;;;;;;;;;4960407;28;20106;-73
2022/09/24 14:57:16;;;;;;;5.40;4.90;;;;;;;;;;4963707;28;20062;-73
2022/09/24 14:59:44;;;;;;;7.05;5.63;;;;;;;;;;4965848;28;20415;-70
2022/09/24 15:02:36;;;;;;;7.90;5.18;;;;;;;;;;4967808;28;20050;-69
2022/09/24 15:05:04;;;;;;;6.00;5.38;;;;;;;;;;4919127;28;20118;-67
2022/09/24 15:08:26;;;;;;;5.80;4.93;;;;;;;;;;4949585;28;20084;-74
2022/09/24 15:11:16;;;;;;;5.45;4.82;;;;;;;;;;4942548;23;20582;-76
2022/09/24 15:13:44;;;;;;;5.78;5.20;;;;;;;;;;4960230;28;20047;-76
2022/09/24 15:16:30;;;;;;;6.75;5.53;;;;;;;;;;4936089;29;20058;-77
2022/09/24 15:19:06;;;;;;;5.97;5.10;;;;;;;;;;4947137;28;20061;-77
2022/09/24 15:21:33;;;;;;;6.07;5.35;;;;;;;;;;4944822;29;20137;-76
2022/09/24 15:24:00;;;;;;;6.85;5.47;;;;;;;;;;4939538;28;20056;-76